createdAt,value
2018-10-18T00:01:35.923Z,24.00
2018-10-18T00:04:02.214Z,22.87
2018-10-18T00:06:28.534Z,23.80
2018-10-18T00:08:54.851Z,24.43
2018-10-18T00:11:21.885Z,25.50
2018-10-18T00:13:48.178Z,23.57
2018-10-18T00:16:14.556Z,24.50
2018-10-18T00:18:40.877Z,22.60
2018-10-18T00:21:07.190Z,23.90
2018-10-18T00:23:33.496Z,27.10
2018-10-18T00:25:59.941Z,26.87
2018-10-18T00:28:26.219Z,25.90
2018-10-18T00:30:52.523Z,28.50
2018-10-18T00:33:18.842Z,28.33
2018-10-18T00:35:45.118Z,29.33
2018-10-18T00:38:11.452Z,29.23
2018-10-18T00:40:37.738Z,28.80
2018-10-18T00:43:04.022Z,26.63
2018-10-18T00:45:30.288Z,28.90
2018-10-18T00:47:56.730Z,28.40
2018-10-18T00:50:23.025Z,28.43
2018-10-18T00:52:49.406Z,27.83
2018-10-18T00:55:15.724Z,29.33
2018-10-18T00:57:42.008Z,28.93
2018-10-18T01:00:08.477Z,29.07
2018-10-18T01:02:34.693Z,27.57
2018-10-18T01:05:01.006Z,30.10
2018-10-18T01:07:28.022Z,27.90
2018-10-18T01:09:54.341Z,32.30
2018-10-18T01:12:20.847Z,30.07
2018-10-18T01:14:46.966Z,31.00
2018-10-18T01:17:13.281Z,30.27
2018-10-18T01:19:39.615Z,30.03
2018-10-18T01:22:05.971Z,31.17
2018-10-18T01:24:32.419Z,29.10
2018-10-18T01:26:58.992Z,32.57
2018-10-18T01:29:25.289Z,29.87
2018-10-18T01:31:51.576Z,29.60
2018-10-18T01:34:18.618Z,31.63
2018-10-18T01:36:45.681Z,29.47
2018-10-18T01:39:12.718Z,27.83
2018-10-18T01:41:39.046Z,27.13
2018-10-18T01:44:05.337Z,27.50
2018-10-18T01:46:31.621Z,26.40
2018-10-18T01:48:57.930Z,26.47
2018-10-18T01:51:24.288Z,26.60
2018-10-18T01:53:50.590Z,29.53
2018-10-18T01:56:16.963Z,27.00
2018-10-18T01:58:43.193Z,27.83
2018-10-18T02:01:09.472Z,27.57
2018-10-18T02:03:35.798Z,27.87
2018-10-18T02:06:02.155Z,28.60
2018-10-18T02:08:28.432Z,28.23
2018-10-18T02:10:54.763Z,29.30
2018-10-18T02:13:21.095Z,29.90
2018-10-18T02:15:47.388Z,30.70
2018-10-18T02:18:13.813Z,28.63
2018-10-18T02:20:40.026Z,28.97
2018-10-18T02:23:06.313Z,27.47
2018-10-18T02:25:32.710Z,31.40
2018-10-18T02:27:59.837Z,30.47
2018-10-18T02:30:26.118Z,31.90
2018-10-18T02:32:52.417Z,31.43
2018-10-18T02:35:18.781Z,28.70
2018-10-18T02:37:45.837Z,29.47
2018-10-18T02:40:12.193Z,30.90
2018-10-18T02:42:38.514Z,29.43
2018-10-18T02:45:04.851Z,30.53
2018-10-18T02:47:31.136Z,29.20
2018-10-18T02:49:57.470Z,29.87
2018-10-18T02:52:24.493Z,31.03
2018-10-18T02:54:50.852Z,29.87
2018-10-18T02:57:17.185Z,32.90
2018-10-18T02:59:44.220Z,31.50
2018-10-18T03:02:10.522Z,30.60
2018-10-18T03:04:36.904Z,32.83
2018-10-18T03:07:03.935Z,29.90
2018-10-18T03:09:30.256Z,31.53
2018-10-18T03:11:56.707Z,30.33
2018-10-18T03:14:22.984Z,33.00
2018-10-18T03:16:49.287Z,30.37
2018-10-18T03:19:15.609Z,28.20
2018-10-18T03:21:41.904Z,29.67
2018-10-18T03:24:08.223Z,28.20
2018-10-18T03:26:35.221Z,26.80
2018-10-18T03:29:02.526Z,27.90
2018-10-18T03:31:29.185Z,28.27
2018-10-18T03:33:55.475Z,27.70
2018-10-18T03:36:21.794Z,29.93
2018-10-18T03:38:48.159Z,27.40
2018-10-18T03:41:14.535Z,29.00
2018-10-18T03:43:40.824Z,32.20
2018-10-18T03:46:07.396Z,30.80
2018-10-18T03:48:33.727Z,30.40
2018-10-18T03:51:00.030Z,31.17
2018-10-18T03:53:26.322Z,31.80
2018-10-18T03:55:52.641Z,32.47
2018-10-18T03:58:19.663Z,33.27
2018-10-18T04:00:46.030Z,33.23
2018-10-18T04:03:12.330Z,32.53
2018-10-18T04:05:39.402Z,32.90
2018-10-18T04:08:05.758Z,36.03
2018-10-18T04:10:32.064Z,34.73
2018-10-18T04:12:58.440Z,34.67
2018-10-18T04:15:24.692Z,33.90
2018-10-18T04:17:51.051Z,33.77
2018-10-18T04:20:18.215Z,35.53
2018-10-18T04:22:45.375Z,32.47
2018-10-18T04:25:12.393Z,36.50
2018-10-18T04:27:39.594Z,36.20
2018-10-18T04:30:06.267Z,37.90
2018-10-18T04:32:33.358Z,38.17
2018-10-18T04:34:59.921Z,37.97
2018-10-18T04:37:26.226Z,37.60
2018-10-18T04:39:53.264Z,37.90
2018-10-18T04:42:19.818Z,36.83
2018-10-18T04:44:46.189Z,35.43
2018-10-18T04:47:13.875Z,39.20
2018-10-18T04:49:40.215Z,33.83
2018-10-18T04:52:06.494Z,36.13
2018-10-18T04:54:32.815Z,38.37
2018-10-18T04:57:00.069Z,38.17
2018-10-18T04:59:26.236Z,35.50
2018-10-18T05:01:52.707Z,37.10
2018-10-18T05:04:19.350Z,33.47
2018-10-18T05:06:45.620Z,37.63
2018-10-18T05:09:11.947Z,33.07
2018-10-18T05:11:38.242Z,33.67
2018-10-18T05:14:04.574Z,35.90
2018-10-18T05:16:30.870Z,33.00
2018-10-18T05:19:08.011Z,35.90
2018-10-18T05:21:34.289Z,33.23
2018-10-18T05:24:00.621Z,36.20
2018-10-18T05:26:27.121Z,33.10
2018-10-18T05:28:53.452Z,37.20
2018-10-18T05:31:19.890Z,37.43
2018-10-18T05:33:46.171Z,35.10
2018-10-18T05:36:12.482Z,35.60
2018-10-18T05:38:38.755Z,41.30
2018-10-18T05:41:05.175Z,35.97
2018-10-18T05:43:31.515Z,34.30
2018-10-18T05:45:57.837Z,35.60
2018-10-18T05:48:24.132Z,37.23
2018-10-18T05:50:50.430Z,33.03
2018-10-18T05:53:17.623Z,31.50
2018-10-18T05:55:43.876Z,37.13
2018-10-18T05:58:10.251Z,34.17
2018-10-18T06:00:36.720Z,39.37
2018-10-18T06:03:03.051Z,36.43
2018-10-18T06:05:29.347Z,36.67
2018-10-18T06:07:55.677Z,38.13
2018-10-18T06:23:59.577Z,36.33
2018-10-18T06:26:26.610Z,34.43
2018-10-18T06:28:52.950Z,32.63
2018-10-18T06:31:19.279Z,35.07
2018-10-18T06:33:45.605Z,33.40
2018-10-18T06:36:11.898Z,35.40
2018-10-18T06:38:38.176Z,33.20
2018-10-18T06:41:04.531Z,34.80
2018-10-18T06:43:31.630Z,37.50
2018-10-18T06:45:57.914Z,35.57
2018-10-18T06:48:24.205Z,34.30
2018-10-18T06:50:50.532Z,37.10
2018-10-18T06:53:16.823Z,35.83
2018-10-18T06:55:43.153Z,35.20
2018-10-18T06:58:09.430Z,34.60
2018-10-18T07:00:35.737Z,34.27
2018-10-18T07:03:02.057Z,35.80
2018-10-18T07:05:28.345Z,38.70
2018-10-18T07:07:54.697Z,35.70
2018-10-18T07:10:21.111Z,33.20
2018-10-18T07:12:48.131Z,33.60
2018-10-18T07:15:15.241Z,35.33
2018-10-18T07:17:43.006Z,35.60
2018-10-18T07:20:09.443Z,33.30
2018-10-18T07:22:35.747Z,35.17
2018-10-18T07:25:04.552Z,36.87
2018-10-18T07:27:30.946Z,33.07
2018-10-18T07:29:57.300Z,38.27
2018-10-18T07:32:23.589Z,33.73
2018-10-18T07:34:49.896Z,37.20
2018-10-18T07:37:16.189Z,37.97
2018-10-18T07:39:43.197Z,41.03
2018-10-18T07:42:09.582Z,38.10
2018-10-18T07:44:35.800Z,40.40
2018-10-18T07:47:02.206Z,40.83
2018-10-18T07:49:28.457Z,38.57
2018-10-18T07:51:54.757Z,39.60
2018-10-18T07:54:21.058Z,39.90
2018-10-18T07:56:47.329Z,42.63
2018-10-18T07:59:14.615Z,42.87
2018-10-18T08:01:41.639Z,41.13
2018-10-18T08:04:07.928Z,42.50
2018-10-18T08:06:34.205Z,45.83
2018-10-18T08:09:00.474Z,42.87
2018-10-18T08:11:26.771Z,44.50
2018-10-18T08:13:53.058Z,44.20
2018-10-18T08:16:19.531Z,42.67
2018-10-18T08:18:45.861Z,44.07
2018-10-18T08:21:12.400Z,43.73
2018-10-18T08:23:38.940Z,44.00
2018-10-18T08:26:05.906Z,45.00
2018-10-18T08:28:32.908Z,46.13
2018-10-18T08:30:59.223Z,45.60
2018-10-18T08:33:29.407Z,45.70
2018-10-18T08:35:57.469Z,45.03
2018-10-18T08:38:25.595Z,45.37
2018-10-18T08:40:52.088Z,47.73
2018-10-18T08:43:19.030Z,46.40
2018-10-18T08:45:45.481Z,49.53
2018-10-18T08:48:13.166Z,48.27
2018-10-18T08:50:40.578Z,49.80
2018-10-18T08:53:07.726Z,51.53
2018-10-18T08:55:34.923Z,49.37
2018-10-18T08:58:01.955Z,48.17
2018-10-18T09:00:29.094Z,50.43
2018-10-18T09:02:55.496Z,50.77
2018-10-18T09:05:22.814Z,50.70
2018-10-18T09:07:49.137Z,49.83
2018-10-18T09:10:16.038Z,49.77
2018-10-18T09:12:42.793Z,52.77
2018-10-18T09:15:10.709Z,49.43
2018-10-18T09:17:37.101Z,51.20
2018-10-18T09:20:03.409Z,52.53
2018-10-18T09:22:29.750Z,50.30
2018-10-18T09:24:56.116Z,54.80
2018-10-18T09:27:22.386Z,52.90
2018-10-18T09:29:48.727Z,57.50
2018-10-18T09:32:15.038Z,49.40
2018-10-18T09:34:42.304Z,50.47
2018-10-18T09:37:09.444Z,52.17
2018-10-18T09:39:35.684Z,52.03
2018-10-18T09:42:02.219Z,55.93
2018-10-18T09:44:28.869Z,52.03
2018-10-18T09:46:55.189Z,52.17
2018-10-18T09:49:21.873Z,56.10
2018-10-18T09:51:48.163Z,54.03
2018-10-18T09:54:14.441Z,49.90
2018-10-18T09:56:40.813Z,52.37
2018-10-18T09:59:07.149Z,54.17
2018-10-18T10:01:40.414Z,55.37
2018-10-18T10:04:06.865Z,52.90
2018-10-18T10:06:33.342Z,46.20
2018-10-18T10:08:59.731Z,46.40
2018-10-18T10:11:26.315Z,50.97
2018-10-18T10:13:53.602Z,48.87
2018-10-18T10:16:20.882Z,54.83
2018-10-18T10:18:49.017Z,50.40
2018-10-18T10:21:17.562Z,53.27
2018-10-18T10:23:44.725Z,54.77
2018-10-18T10:26:12.465Z,52.00
2018-10-18T10:28:38.892Z,48.57
2018-10-18T10:31:05.443Z,48.33
2018-10-18T10:33:31.913Z,48.60
2018-10-18T10:35:58.454Z,49.00
2018-10-18T10:38:24.806Z,57.77
2018-10-18T10:40:51.215Z,51.30
2018-10-18T10:43:17.698Z,44.33
2018-10-18T10:45:44.177Z,47.93
2018-10-18T10:48:11.268Z,48.87
2018-10-18T10:50:37.707Z,39.67
2018-10-18T10:53:04.092Z,48.63
2018-10-18T10:55:30.518Z,45.70
2018-10-18T10:57:56.964Z,48.57
2018-10-18T11:00:23.399Z,48.10
2018-10-18T11:02:49.765Z,43.00
2018-10-18T11:05:16.141Z,42.03
2018-10-18T11:07:44.945Z,43.70
2018-10-18T11:10:11.559Z,43.77
2018-10-18T11:12:37.885Z,45.47
2018-10-18T11:15:05.082Z,45.53
2018-10-18T11:17:31.404Z,45.10
2018-10-18T11:19:57.886Z,43.80
2018-10-18T11:22:24.631Z,44.17
2018-10-18T11:24:52.143Z,44.83
2018-10-18T11:27:19.501Z,42.43
2018-10-18T11:29:45.790Z,38.57
2018-10-18T11:32:12.884Z,40.57
2018-10-18T11:34:39.440Z,41.03
2018-10-18T11:37:05.918Z,36.60
2018-10-18T11:39:33.063Z,42.17
2018-10-18T11:42:00.185Z,41.37
2018-10-18T11:44:26.585Z,42.43
2018-10-18T11:46:53.379Z,40.03
2018-10-18T11:49:20.209Z,43.00
2018-10-18T11:51:47.145Z,42.40
2018-10-18T11:54:13.815Z,45.03
2018-10-18T11:56:40.433Z,43.03
2018-10-18T11:59:06.840Z,47.87
2018-10-18T12:01:33.258Z,61.67
2018-10-18T12:03:59.547Z,51.47
2018-10-18T12:06:26.779Z,94.67
2018-10-18T12:08:53.057Z,75.47
2018-10-18T12:11:20.155Z,179.47
2018-10-18T12:13:47.607Z,68.63
2018-10-18T12:16:14.055Z,70.43
2018-10-18T12:18:40.378Z,46.50
2018-10-18T12:21:06.664Z,119.97
2018-10-18T12:23:33.139Z,57.63
2018-10-18T12:25:59.410Z,107.37
2018-10-18T12:28:26.330Z,55.17
2018-10-18T12:30:52.649Z,59.43
2018-10-18T12:33:19.367Z,51.00
2018-10-18T12:35:45.722Z,42.17
2018-10-18T12:38:13.422Z,43.70
2018-10-18T12:40:39.990Z,44.40
2018-10-18T12:43:07.406Z,44.23
2018-10-18T12:45:34.177Z,36.83
2018-10-18T12:48:01.130Z,40.17
2018-10-18T12:50:29.169Z,37.70
2018-10-18T12:52:57.453Z,38.20
2018-10-18T12:55:25.723Z,35.73
2018-10-18T12:57:53.809Z,38.27
2018-10-18T13:00:20.817Z,37.30
2018-10-18T13:02:48.072Z,38.00
2018-10-18T13:05:14.397Z,35.90
2018-10-18T13:07:41.221Z,35.83
2018-10-18T13:10:07.658Z,38.40
2018-10-18T13:12:34.180Z,38.30
2018-10-18T13:15:01.329Z,34.73
2018-10-18T13:17:27.836Z,37.63
2018-10-18T13:19:54.526Z,37.93
2018-10-18T13:22:20.863Z,34.90
2018-10-18T13:24:47.131Z,36.63
2018-10-18T13:27:14.355Z,38.30
2018-10-18T13:29:40.738Z,36.47
2018-10-18T13:32:07.920Z,37.00
2018-10-18T13:34:34.213Z,36.37
2018-10-18T13:37:01.287Z,38.93
2018-10-18T13:39:27.589Z,37.93
2018-10-18T13:41:53.939Z,36.73
2018-10-18T13:44:20.249Z,41.87
2018-10-18T13:46:47.310Z,40.37
2018-10-18T13:49:14.504Z,41.93
2018-10-18T13:51:40.853Z,38.87
2018-10-18T13:54:07.251Z,40.60
2018-10-18T13:56:34.342Z,41.03
2018-10-18T13:59:01.628Z,37.50
2018-10-18T14:01:27.963Z,40.83
2018-10-18T14:03:55.106Z,36.40
2018-10-18T14:06:21.432Z,39.20
2018-10-18T14:08:47.811Z,43.37
2018-10-18T14:11:14.902Z,36.80
2018-10-18T14:13:42.937Z,42.33
2018-10-18T14:16:09.695Z,39.07
2018-10-18T14:18:36.620Z,36.30
2018-10-18T14:21:03.023Z,36.30
2018-10-18T14:23:36.010Z,35.20
2018-10-18T14:26:06.783Z,35.40
2018-10-18T14:31:12.860Z,35.50
2018-10-18T14:33:39.643Z,36.03
2018-10-18T14:36:06.830Z,33.53
2018-10-18T14:38:37.569Z,35.63
2018-10-18T14:41:04.830Z,37.07
2018-10-18T14:43:36.866Z,37.07
2018-10-18T14:46:06.331Z,34.37
2018-10-18T14:48:33.528Z,33.93
2018-10-18T14:51:03.937Z,33.20
2018-10-18T14:53:30.304Z,33.43
2018-10-18T14:55:57.427Z,36.43
2018-10-18T14:58:25.190Z,34.47
2018-10-18T15:00:52.264Z,33.70
2018-10-18T15:03:19.262Z,32.57
2018-10-18T15:05:45.967Z,32.03
2018-10-18T15:08:14.004Z,34.07
2018-10-18T15:10:41.875Z,33.43
2018-10-18T15:13:10.728Z,31.67
2018-10-18T15:15:37.451Z,33.87
2018-10-18T15:18:10.767Z,32.23
2018-10-18T15:20:37.916Z,35.37
2018-10-18T15:23:06.569Z,33.53
2018-10-18T15:25:35.308Z,32.33
2018-10-18T15:28:05.132Z,33.13
2018-10-18T15:30:31.976Z,33.30
2018-10-18T15:32:58.362Z,33.40
2018-10-18T15:35:27.590Z,30.53
2018-10-18T15:37:57.307Z,37.70
2018-10-18T15:40:25.863Z,34.23
2018-10-18T15:43:03.720Z,33.17
2018-10-18T15:45:30.285Z,33.10
2018-10-18T15:47:56.720Z,35.03
2018-10-18T15:50:29.685Z,31.50
2018-10-18T15:53:00.305Z,30.03
2018-10-18T15:55:29.311Z,31.70
2018-10-18T15:57:56.090Z,32.43
2018-10-18T16:00:28.649Z,30.60
2018-10-18T16:02:56.647Z,31.23
2018-10-18T16:05:25.630Z,30.00
2018-10-18T16:07:53.518Z,28.10
2018-10-18T16:10:20.288Z,38.07
2018-10-18T16:12:58.147Z,30.43
2018-10-18T16:15:28.948Z,31.13
2018-10-18T16:17:55.714Z,31.40
2018-10-18T16:20:21.948Z,29.43
2018-10-18T16:22:48.362Z,32.13
2018-10-18T16:25:15.444Z,31.77
2018-10-18T16:27:44.536Z,29.80
2018-10-18T16:30:13.705Z,31.70
2018-10-18T16:32:44.956Z,31.17
2018-10-18T16:35:21.123Z,30.23
2018-10-18T16:37:53.257Z,29.13
2018-10-18T16:40:22.252Z,32.30
2018-10-18T16:45:29.266Z,30.73
2018-10-18T16:48:11.739Z,34.83
2018-10-18T16:53:20.440Z,33.13
2018-10-18T16:55:50.961Z,31.87
2018-10-18T16:58:18.932Z,32.30
2018-10-18T17:00:47.578Z,32.50
2018-10-18T17:03:17.796Z,32.30
2018-10-18T17:05:47.793Z,32.50
2018-10-18T17:08:16.309Z,32.30
2018-10-18T17:10:43.624Z,29.60
2018-10-18T17:13:11.442Z,31.80
2018-10-18T17:15:39.386Z,29.97
2018-10-18T17:18:08.020Z,32.27
2018-10-18T17:20:36.458Z,34.13
2018-10-18T17:23:03.319Z,32.73
2018-10-18T17:25:33.506Z,30.60
2018-10-18T17:28:03.395Z,32.50
2018-10-18T17:30:35.282Z,29.17
2018-10-18T17:33:05.365Z,32.30
2018-10-18T17:35:41.689Z,33.50
2018-10-18T17:38:14.839Z,34.93
2018-10-18T17:40:43.868Z,36.90
2018-10-18T17:43:13.690Z,31.37
2018-10-18T17:45:42.150Z,31.37
2018-10-18T17:48:15.532Z,31.47
2018-10-18T17:50:46.113Z,33.37
2018-10-18T17:53:13.770Z,33.73
2018-10-18T17:58:27.786Z,32.10
2018-10-18T18:01:01.277Z,30.23
2018-10-18T18:03:34.291Z,33.13
2018-10-18T18:08:38.723Z,36.90
2018-10-18T18:11:08.366Z,35.60
2018-10-18T18:13:37.137Z,30.73
2018-10-18T18:18:43.230Z,31.77
2018-10-18T18:21:13.177Z,32.60
2018-10-18T18:26:32.333Z,33.27
2018-10-18T18:28:54.709Z,30.77
2018-10-18T18:31:31.261Z,34.63
2018-10-18T18:33:58.607Z,34.73
2018-10-18T18:36:24.982Z,31.67
2018-10-18T18:38:51.411Z,33.30
2018-10-18T18:41:19.572Z,33.90
2018-10-18T18:43:48.764Z,32.00
2018-10-18T18:46:15.123Z,33.67
2018-10-18T18:48:45.277Z,35.10
2018-10-18T18:51:11.874Z,32.30
2018-10-18T18:53:40.618Z,35.77
2018-10-18T18:56:08.668Z,32.30
2018-10-18T18:58:36.197Z,35.10
2018-10-18T19:01:06.148Z,33.27
2018-10-18T19:03:37.285Z,32.60
2018-10-18T19:06:08.940Z,33.30
2018-10-18T19:08:38.645Z,33.63
2018-10-18T19:11:05.066Z,33.40
2018-10-18T19:13:31.605Z,32.70
2018-10-18T19:15:58.849Z,34.23
2018-10-18T19:18:26.686Z,34.70
2018-10-18T19:20:52.990Z,35.17
2018-10-18T19:23:22.710Z,30.47
2018-10-18T19:25:54.451Z,33.37
2018-10-18T19:28:43.841Z,31.27
2018-10-18T19:31:13.848Z,34.67
2018-10-18T19:33:40.869Z,33.73
2018-10-18T19:36:09.635Z,33.00
2018-10-18T19:38:42.995Z,34.90
2018-10-18T19:41:18.952Z,34.77
2018-10-18T19:43:56.075Z,34.67
2018-10-18T19:46:25.129Z,33.97
2018-10-18T19:48:54.334Z,37.13
2018-10-18T19:51:20.908Z,38.83
2018-10-18T19:53:48.371Z,35.97
2018-10-18T19:56:14.869Z,42.97
2018-10-18T19:58:41.196Z,36.27
2018-10-18T20:01:07.543Z,39.80
2018-10-18T20:03:33.848Z,39.47
2018-10-18T20:06:00.674Z,37.13
2018-10-18T20:08:27.706Z,34.80
2018-10-18T20:10:54.066Z,32.60
2018-10-18T20:13:20.430Z,35.40
2018-10-18T20:15:46.766Z,33.60
2018-10-18T20:18:15.983Z,32.20
2018-10-18T20:20:43.017Z,38.60
2018-10-18T20:23:09.313Z,44.53
2018-10-18T20:25:35.645Z,44.20
2018-10-18T20:28:01.974Z,38.10
2018-10-18T20:30:28.291Z,32.80
2018-10-18T20:32:54.609Z,34.10
2018-10-18T20:35:20.982Z,34.20
2018-10-18T20:37:47.588Z,35.13
2018-10-18T20:40:13.901Z,34.70
2018-10-18T20:42:40.539Z,29.63
2018-10-18T20:45:06.880Z,30.93
2018-10-18T20:47:33.344Z,30.83
2018-10-18T20:49:59.530Z,29.47
2018-10-18T20:52:25.912Z,36.07
2018-10-18T20:54:52.202Z,35.70
2018-10-18T20:57:18.531Z,32.50
2018-10-18T20:59:45.285Z,33.83
2018-10-18T21:02:11.663Z,30.70
2018-10-18T21:04:37.966Z,29.70
2018-10-18T21:07:04.599Z,32.10
2018-10-18T21:09:30.932Z,28.83
2018-10-18T21:11:57.515Z,30.97
2018-10-18T21:14:24.226Z,28.67
2018-10-18T21:16:50.548Z,31.67
2018-10-18T21:19:17.091Z,31.00
2018-10-18T21:21:43.527Z,30.83
2018-10-18T21:24:09.837Z,28.60
2018-10-18T21:26:36.129Z,35.47
2018-10-18T21:29:02.489Z,29.17
2018-10-18T21:31:28.847Z,29.17
2018-10-18T21:33:55.122Z,28.70
2018-10-18T21:36:22.505Z,29.33
2018-10-18T21:38:48.860Z,28.43
2018-10-18T21:41:15.546Z,26.80
2018-10-18T21:43:42.642Z,27.57
2018-10-18T21:46:08.941Z,27.40
2018-10-18T21:48:36.216Z,27.03
2018-10-18T21:51:02.563Z,26.47
2018-10-18T21:53:29.333Z,28.60
2018-10-18T21:55:56.373Z,25.23
2018-10-18T21:58:22.663Z,25.93
2018-10-18T22:00:48.961Z,26.87
2018-10-18T22:03:15.322Z,27.23
2018-10-18T22:05:41.630Z,25.83
2018-10-18T22:08:08.001Z,26.27
2018-10-18T22:10:34.746Z,33.10
2018-10-18T22:13:01.101Z,30.40
2018-10-18T22:15:28.516Z,25.33
2018-10-18T22:17:54.857Z,26.93
2018-10-18T22:20:21.163Z,25.93
2018-10-18T22:22:47.779Z,24.30
2018-10-18T22:25:14.107Z,25.47
2018-10-18T22:27:40.594Z,23.30
2018-10-18T22:30:06.930Z,22.90
2018-10-18T22:32:33.356Z,22.23
2018-10-18T22:34:59.737Z,23.93
2018-10-18T22:37:26.100Z,20.60
2018-10-18T22:39:53.169Z,22.80
2018-10-18T22:42:20.015Z,21.77
2018-10-18T22:44:46.326Z,22.77
2018-10-18T22:47:12.655Z,22.07
2018-10-18T22:49:38.934Z,22.93
2018-10-18T22:52:05.226Z,20.97
2018-10-18T22:54:32.253Z,20.20
2018-10-18T22:56:58.521Z,19.27
2018-10-18T22:59:24.838Z,19.07
2018-10-18T23:01:51.879Z,19.20
2018-10-18T23:04:18.970Z,20.93
2018-10-18T23:06:45.232Z,20.33
2018-10-18T23:09:11.637Z,17.10
2018-10-18T23:11:37.848Z,18.53
2018-10-18T23:14:04.159Z,19.03
2018-10-18T23:16:30.493Z,18.90
2018-10-18T23:18:56.797Z,17.03
2018-10-18T23:21:23.128Z,15.90
2018-10-18T23:23:49.401Z,17.20
2018-10-18T23:26:15.768Z,17.00
2018-10-18T23:28:42.115Z,18.17
2018-10-18T23:31:08.398Z,16.87
2018-10-18T23:33:34.689Z,16.27
2018-10-18T23:36:01.013Z,14.80
2018-10-18T23:38:27.341Z,15.97
2018-10-18T23:40:53.690Z,15.60
2018-10-18T23:43:19.959Z,15.57
2018-10-18T23:45:46.294Z,17.13
2018-10-18T23:48:12.567Z,14.87
2018-10-18T23:50:38.910Z,14.97
2018-10-18T23:53:05.251Z,13.87
2018-10-18T23:55:31.510Z,15.10
2018-10-18T23:57:57.815Z,14.83
